Fallbrook (230, 1234, 239, RB1) Station Data

Red Flag Warning: No
Fire Weather Zone: 250
SDGE Region: North East
Lat/Lon: 33.355/-117.167

Observations

Time Wind Speed/Gust Temp(F) RH Fuel Moist Fuel Temp(F) Dewpt(F) Tmax(F) Tmin(F) Accum Precip 10-min Precip SL Press(mb)
6/27 4:50pm 233 6 G 13 81° 42% - - 55° 90.8° 70.2° - - -
6/27 4:40pm 219 9 G 14 80° 41% - - 54° 90.8° 70.2° - - -
6/27 4:30pm 217 9 G 14 81° 40% - - 54° 90.8° 70.2° - - -
6/27 4:20pm 213 8 G 14 82° 38% - - 53° 90.8° 70.2° - - -
6/27 4:10pm 216 8 G 13 82° 37% - - 54° 90.8° 70.2° - - -
6/27 4:00pm 205 6 G 12 83° 37% - - 54° 90.8° 70.2° - - -
6/27 3:50pm 222 6 G 10 83° 36% - - 54° 90.8° 70.2° - - -
6/27 3:40pm 213 6 G 12 83° 35% - - 53° 90.8° 70.2° - - -
6/27 3:30pm 212 7 G 14 83° 32% - - 51° 90.8° 70.2° - - -
6/27 3:20pm 216 8 G 15 84° 30% - - 49° 90.8° 70.2° - - -
6/27 3:10pm 227 5 G 13 84° 31% - - 51° 90.8° 70.2° - - -
6/27 3:00pm 222 7 G 12 84° 33% - - 52° 90.8° 70.2° - - -
6/27 2:50pm 224 7 G 12 85° 33% - - 52° 90.8° 70.2° - - -
6/27 2:40pm 222 6 G 12 85° 33% - - 53° 90.8° 70.2° - - -
6/27 2:30pm 235 7 G 15 86° 32% - - 53° 90.8° 70.2° - - -
6/27 2:20pm 237 6 G 13 86° 33% - - 54° 90.8° 70.2° - - -
6/27 2:10pm 217 7 G 13 87° 31% - - 52° 90.8° 70.2° - - -
6/27 2:00pm 222 8 G 15 87° 31% - - 52° 90.8° 70.2° - - -
6/27 1:50pm 216 9 G 16 87° 30% - - 52° 90.8° 70.2° - - -
6/27 1:40pm 216 9 G 16 88° 27% - - 49° 90.8° 70.2° - - -
6/27 1:30pm 213 7 G 13 88° 25% - - 48° 90.8° 70.2° - - -
6/27 1:20pm 215 8 G 16 87° 28% - - 50° 90.8° 70.2° - - -
6/27 1:10pm 223 9 G 16 86° 29% - - 50° 90.8° 70.2° - - -
6/27 1:00pm 225 11 G 18 86° 29% - - 49° 90.8° 70.2° - - -
6/27 12:50pm 233 11 G 17 86° 28% - - 49° 90.8° 70.2° - - -
6/27 12:40pm 235 10 G 17 87° 26% - - 48° 90.8° 70.2° - - -
6/27 12:30pm 230 10 G 15 88° 26% - - 48° 90.8° 70.2° - - -
6/27 12:20pm 232 9 G 13 89° 24% - - 47° 90.8° 70.2° - - -
6/27 12:10pm 223 9 G 15 89° 24% - - 47° 90.8° 70.2° - - -
6/27 12:00pm 226 9 G 14 89° 24% - - 48° 90.8° 70.2° - - -
6/27 11:50am 218 7 G 12 90° 22% - - 46° 90.8° 70.2° - - -
6/27 11:40am 220 6 G 11 89° 18% - - 41° 90.4° 70.2° - - -
6/27 11:30am 211 6 G 12 89° 18% - - 41° 89.8° 70.2° - - -
6/27 11:20am 222 6 G 11 89° 17% - - 39° 89.3° 70.2° - - -
6/27 11:10am 249 5 G 9 88° 18% - - 39° 88.9° 70.2° - - -
6/27 11:00am 255 5 G 8 87° 21% - - 42° 87.7° 70.2° - - -
6/27 10:50am 271 3 G 7 86° 22% - - 43° 87.3° 70.2° - - -
6/27 10:40am 262 3 G 6 86° 21% - - 41° 86.2° 70.2° - - -
6/27 10:30am 231 4 G 8 85° 21% - - 41° 85.6° 70.2° - - -
6/27 10:20am 242 4 G 7 84° 21% - - 40° 85.2° 70.2° - - -
6/27 10:10am 220 4 G 8 84° 20% - - 39° 84.6° 70.2° - - -
6/27 10:00am 198 5 G 7 83° 21% - - 39° 84° 70.2° - - -
6/27 9:50am 185 3 G 6 83° 23% - - 41° 83.4° 70.2° - - -
6/27 9:40am 185 3 G 5 82° 25% - - 43° 82.7° 70.2° - - -
6/27 9:30am 191 2 G 4 82° 27% - - 45° 82.6° 70.2° - - -
6/27 9:20am 204 1 G 3 82° 25% - - 42° 82.6° 70.2° - - -
6/27 8:50am 211 1 G 2 79° 33% - - 47° 79.7° 70.2° - - -
6/27 8:30am 257 1 G 1 78° 35% - - 48° 79.7° 70.2° - - -
6/27 8:20am 269 0 G 1 78° 34% - - 48° 79.7° 70.2° - - -
6/27 8:10am 125 0 G 2 79° 31% - - 46° 79.7° 70.2° - - -
6/27 8:00am 41 1 G 2 78° 32% - - 46° 79.2° 70.2° - - -
6/27 7:50am 68 1 G 3 78° 30% - - 44° 79.2° 70.2° - - -
6/27 7:40am 160 0 G 2 78° 30% - - 44° 78.7° 70.2° - - -
6/27 7:30am 81 2 G 4 77° 26% - - 39° 78.3° 70.2° - - -
6/27 7:20am 93 3 G 4 75° 26% - - 38° 78.3° 70.2° - - -
6/27 7:10am 95 2 G 4 75° 28% - - 40° 78.3° 70.2° - - -
6/27 7:00am 103 2 G 3 76° 29% - - 42° 78.3° 70.2° - - -
6/27 6:50am 93 3 G 4 75° 26% - - 37° 78.3° 70.2° - - -
6/27 6:40am 100 4 G 5 74° 27% - - 38° 78.3° 70.2° - - -
6/27 6:30am 88 4 G 5 74° 26% - - 37° 78.3° 70.2° - - -
6/27 6:20am 85 5 G 7 74° 26% - - 37° 78.3° 70.2° - - -
6/27 6:10am 94 5 G 7 73° 28% - - 38° 78.3° 70.2° - - -
6/27 6:00am 63 3 G 4 73° 30% - - 39° 78.3° 70.2° - - -
6/27 5:50am 38 3 G 4 74° 28% - - 40° 78.3° 70.2° - - -
6/27 5:40am 17 3 G 4 74° 29% - - 40° 78.3° 70.2° - - -
6/27 5:30am 34 3 G 5 73° 32% - - 41° 78.3° 70.2° - - -
6/27 5:20am 45 4 G 5 73° 32% - - 42° 78.3° 70.2° - - -
6/27 5:10am 63 3 G 5 74° 31% - - 41° 78.3° 70.2° - - -
6/27 5:00am 73 3 G 4 75° 28% - - 40° 78.3° 70.2° - - -
6/27 4:50am 147 1 G 3 75° 27% - - 39° 78.3° 70.2° - - -
6/27 4:40am 172 2 G 4 75° 27% - - 39° 78.3° 70.2° - - -
6/27 4:30am 163 2 G 4 74° 28% - - 39° 78.3° 70.2° - - -
6/27 4:20am 103 2 G 4 73° 31% - - 40° 78.3° 70.2° - - -
6/27 4:10am 105 3 G 4 72° 33% - - 41° 78.3° 70.2° - - -
6/27 4:00am 108 5 G 6 71° 36% - - 43° 78.3° 70.2° - - -
6/27 3:50am 120 3 G 5 73° 36% - - 45° 78.3° 71.1° - - -
6/27 3:40am 53 2 G 3 76° 33% - - 44° 78.3° 71.2° - - -
6/27 3:30am 12 3 G 4 77° 30% - - 44° 78.3° 71.2° - - -
6/27 3:20am 12 5 G 6 77° 31% - - 44° 78.3° 71.2° - - -
6/27 3:10am 18 5 G 6 74° 35% - - 45° 76.8° 71.2° - - -
6/27 3:00am 354 4 G 5 74° 34% - - 45° 76.8° 71.2° - - -
6/27 2:50am 352 3 G 5 74° 37% - - 46° 76.8° 71.2° - - -
6/27 2:40am 27 3 G 4 75° 37% - - 47° 76.8° 71.2° - - -
6/27 2:30am 40 4 G 5 74° 41% - - 49° 76.5° 71.2° - - -
6/27 2:20am 77 5 G 7 75° 37% - - 47° 76.5° 71.2° - - -
6/27 2:10am 86 4 G 6 75° 38% - - 48° 76.3° 71.2° - - -
6/27 2:00am 101 5 G 6 75° 37% - - 48° 76.3° 71.2° - - -
6/27 1:50am 104 6 G 7 74° 40% - - 48° 76.1° 71.2° - - -
6/27 1:40am 100 6 G 7 72° 45% - - 50° 76.1° 71.2° - - -
6/27 1:30am 107 5 G 7 73° 47% - - 51° 76.1° 71.4° - - -
6/27 1:20am 99 4 G 5 74° 44% - - 51° 76.1° 71.4° - - -
6/27 1:10am 109 4 G 5 72° 48% - - 52° 76.1° 71.4° - - -
6/27 1:00am 99 4 G 5 73° 50% - - 54° 76.1° 71.8° - - -
6/27 12:50am 67 3 G 4 75° 44% - - 52° 76.1° 72.7° - - -
6/27 12:40am 33 2 G 3 75° 44% - - 52° 76.1° 72.7° - - -
6/27 12:30am 18 2 G 3 74° 47% - - 52° 75.7° 72.7° - - -
6/27 12:20am 350 1 G 2 73° 50% - - 54° 74.9° 72.7° - - -
6/27 12:10am 231 1 G 2 74° 50% - - 54° 74.9° 72.9° - - -
6/27 12:00am 25 0 G 1 76° 44% - - 52° 90.7° 66.9° - - -
6/26 11:50pm 83 1 G 2 77° 41% - - 52° 90.7° 66.9° - - -
6/26 11:40pm 51 3 G 4 77° 41% - - 52° 90.7° 66.9° - - -
6/26 11:30pm 30 4 G 5 75° 46% - - 53° 90.7° 66.9° - - -
6/26 11:20pm 35 5 G 5 75° 47% - - 53° 90.7° 66.9° - - -
6/26 11:10pm 29 3 G 5 74° 50% - - 54° 90.7° 66.9° - - -
6/26 11:00pm 50 4 G 5 74° 49% - - 54° 90.7° 66.9° - - -
6/26 10:50pm 22 3 G 4 74° 52% - - 55° 90.7° 66.9° - - -
6/26 10:40pm 56 3 G 4 75° 48% - - 54° 90.7° 66.9° - - -
6/26 10:30pm 76 3 G 3 76° 46% - - 53° 90.7° 66.9° - - -
6/26 10:20pm 69 2 G 2 75° 48% - - 54° 90.7° 66.9° - - -
6/26 10:10pm 195 0 G 1 74° 49% - - 54° 90.7° 66.9° - - -
6/26 10:00pm 87 1 G 2 75° 49% - - 54° 90.7° 66.9° - - -
6/26 9:50pm 34 1 G 2 75° 49% - - 55° 90.7° 66.9° - - -
6/26 9:40pm 55 1 G 2 75° 50% - - 55° 90.7° 66.9° - - -
6/26 9:30pm 192 1 G 3 75° 52% - - 56° 90.7° 66.9° - - -
6/26 9:20pm 184 3 G 4 76° 49% - - 55° 90.7° 66.9° - - -
6/26 9:10pm 199 4 G 7 76° 46% - - 54° 90.7° 66.9° - - -
6/26 9:00pm 206 5 G 9 77° 45% - - 53° 90.7° 66.9° - - -
6/26 8:50pm 207 5 G 9 77° 43% - - 53° 90.7° 66.9° - - -
6/26 8:40pm 207 5 G 6 77° 42% - - 53° 90.7° 66.9° - - -
6/26 8:30pm 202 4 G 7 78° 40% - - 52° 90.7° 66.9° - - -
6/26 8:20pm 207 4 G 6 78° 39% - - 52° 90.7° 66.9° - - -
6/26 8:10pm 223 3 G 4 79° 39% - - 52° 90.7° 66.9° - - -
6/26 8:00pm 222 3 G 5 80° 39% - - 53° 90.7° 66.9° - - -
6/26 7:50pm 216 3 G 5 81° 38% - - 53° 90.7° 66.9° - - -
6/26 7:40pm 221 3 G 4 82° 38% - - 53° 90.7° 66.9° - - -
6/26 7:30pm 210 3 G 4 82° 37% - - 54° 90.7° 66.9° - - -
6/26 7:20pm 216 3 G 4 83° 37% - - 54° 90.7° 66.9° - - -
6/26 7:10pm 227 3 G 5 83° 37% - - 54° 90.7° 66.9° - - -
6/26 7:00pm 225 4 G 6 83° 36% - - 54° 90.7° 66.9° - - -
6/26 6:50pm 223 4 G 6 84° 36% - - 54° 90.7° 66.9° - - -
6/26 6:40pm 225 4 G 6 84° 35% - - 54° 90.7° 66.9° - - -
6/26 6:30pm 224 4 G 6 84° 35% - - 54° 90.7° 66.9° - - -
6/26 6:20pm 218 5 G 7 84° 36% - - 54° 90.7° 66.9° - - -
6/26 6:10pm 207 6 G 8 84° 36% - - 55° 90.7° 66.9° - - -
6/26 6:00pm 222 5 G 7 85° 36% - - 56° 90.7° 66.9° - - -
6/26 5:50pm 214 5 G 7 85° 37% - - 56° 90.7° 66.9° - - -
6/26 5:40pm 199 7 G 9 84° 38% - - 56° 90.7° 66.9° - - -
6/26 5:30pm 198 7 G 10 86° 36% - - 56° 90.7° 66.9° - - -
6/26 5:20pm 195 7 G 10 87° 35% - - 56° 90.7° 66.9° - - -
6/26 5:10pm 199 6 G 9 87° 34% - - 55° 90.7° 66.9° - - -
6/26 5:00pm 220 5 G 8 88° 34% - - 56° 90.7° 66.9° - - -
6/26 4:50pm 210 5 G 8 88° 35% - - 56° 90.7° 66.9° - - -
6/26 4:40pm 202 6 G 10 88° 35% - - 57° 90.7° 66.9° - - -
6/26 4:30pm 188 6 G 9 88° 36% - - 57° 90.7° 66.9° - - -
6/26 4:20pm 196 5 G 9 88° 37% - - 58° 90.7° 66.9° - - -
6/26 4:10pm 198 6 G 11 88° 37% - - 59° 90.7° 66.9° - - -
6/26 4:00pm 197 7 G 11 88° 38% - - 59° 90.7° 66.9° - - -
6/26 3:50pm 215 6 G 10 88° 38% - - 59° 90.7° 66.9° - - -
6/26 3:40pm 206 6 G 11 88° 38% - - 60° 90.7° 66.9° - - -
6/26 3:30pm 208 7 G 12 88° 38% - - 59° 90.7° 66.9° - - -
6/26 3:20pm 227 6 G 10 89° 37% - - 60° 90.7° 66.9° - - -
6/26 3:10pm 215 5 G 10 89° 37% - - 59° 90.7° 66.9° - - -
6/26 3:00pm 200 6 G 10 89° 36% - - 59° 90° 66.9° - - -
6/26 2:50pm 198 6 G 11 88° 37% - - 59° 90° 66.9° - - -
6/26 2:40pm 193 7 G 12 89° 37% - - 59° 90° 66.9° - - -
6/26 2:30pm 189 7 G 12 89° 36% - - 59° 90° 66.9° - - -
6/26 2:20pm 191 7 G 12 89° 36% - - 58° 89.5° 66.9° - - -
6/26 2:10pm 193 6 G 11 89° 37% - - 59° 89.5° 66.9° - - -
6/26 2:00pm 211 6 G 11 88° 38% - - 59° 89.2° 66.9° - - -
6/26 1:50pm 200 8 G 12 87° 38% - - 58° 89.2° 66.9° - - -
6/26 1:40pm 193 8 G 14 87° 37% - - 58° 89.2° 66.9° - - -
6/26 1:30pm 207 8 G 12 87° 38% - - 59° 89.2° 66.9° - - -
6/26 1:20pm 203 8 G 14 87° 39% - - 59° 89.2° 66.9° - - -
6/26 1:10pm 222 8 G 13 88° 38% - - 59° 89.2° 66.9° - - -
6/26 1:00pm 221 7 G 12 88° 37% - - 59° 89.2° 66.9° - - -
6/26 12:50pm 225 7 G 12 88° 36% - - 58° 89.2° 66.9° - - -
6/26 12:40pm 232 9 G 13 87° 37% - - 57° 88.9° 66.9° - - -
6/26 12:30pm 228 9 G 13 87° 36% - - 57° 88.9° 66.9° - - -
6/26 12:20pm 230 9 G 13 87° 38% - - 58° 88.9° 66.9° - - -
6/26 12:10pm 234 8 G 13 86° 38% - - 58° 88.9° 66.9° - - -
6/26 12:00pm 227 8 G 13 86° 37% - - 57° 88.9° 66.9° - - -
6/26 11:50am 227 10 G 15 86° 39% - - 58° 88.9° 66.9° - - -
6/26 11:40am 238 10 G 16 86° 38% - - 57° 88.9° 66.9° - - -
6/26 11:30am 238 10 G 14 86° 42% - - 60° 88.9° 66.9° - - -
6/26 11:20am 240 10 G 14 87° 40% - - 60° 88.9° 66.9° - - -
6/26 11:10am 234 8 G 13 87° 37% - - 58° 88.9° 66.9° - - -
6/26 11:00am 234 7 G 13 88° 38% - - 59° 88.9° 66.9° - - -
6/26 10:50am 234 5 G 9 88° 36% - - 58° 88.9° 66.9° - - -
6/26 10:40am 247 6 G 9 87° 32% - - 54° 88.3° 66.9° - - -
6/26 10:30am 255 5 G 7 88° 31% - - 53° 88.3° 66.9° - - -
6/26 10:20am 248 4 G 7 88° 33% - - 55° 88.3° 66.9° - - -
6/26 10:10am 207 3 G 5 87° 38% - - 58° 87.5° 66.9° - - -
6/26 10:00am 195 2 G 5 86° 39% - - 58° 87.3° 66.9° - - -
6/26 9:50am 198 3 G 5 85° 40% - - 59° 86.6° 66.9° - - -
6/26 9:40am 216 2 G 5 86° 39% - - 58° 86.6° 66.9° - - -
6/26 9:30am 248 1 G 3 85° 40% - - 57° 85.4° 66.9° - - -
6/26 9:20am 258 2 G 3 84° 42% - - 58° 84.7° 66.9° - - -
6/26 9:10am 242 1 G 2 83° 41% - - 57° 84.4° 66.9° - - -
6/26 9:00am 190 2 G 4 82° 43% - - 57° 84.4° 66.9° - - -
6/26 8:50am 204 1 G 2 82° 46% - - 59° 84.4° 66.9° - - -
6/26 8:40am 197 1 G 3 83° 44% - - 59° 84.4° 66.9° - - -
6/26 8:30am 249 0 G 1 83° 42% - - 57° 84.4° 66.9° - - -
6/26 8:20am 65 1 G 3 83° 41% - - 57° 84.4° 66.9° - - -
6/26 8:10am 112 1 G 3 82° 39% - - 54° 83.3° 66.9° - - -
6/26 8:00am 264 1 G 3 82° 34% - - 51° 83.3° 66.9° - - -
6/26 7:50am 215 3 G 4 81° 30% - - 47° 83.3° 66.9° - - -
6/26 7:40am 197 2 G 4 82° 30% - - 48° 83.3° 66.9° - - -
6/26 7:30am 20 2 G 3 83° 30% - - 48° 83.3° 66.9° - - -
6/26 7:20am 90 1 G 3 82° 33% - - 50° 83.1° 66.9° - - -
6/26 7:10am 88 2 G 3 82° 33% - - 49° 82.6° 66.9° - - -
6/26 7:00am 96 2 G 4 82° 31% - - 48° 82.6° 66.9° - - -
6/26 6:50am 92 2 G 4 81° 32% - - 48° 81.5° 66.9° - - -
6/26 6:40am 42 2 G 3 79° 34% - - 49° 80.1° 66.9° - - -
6/26 6:30am 67 2 G 5 79° 36% - - 50° 79.4° 66.9° - - -
6/26 6:20am 58 4 G 5 78° 36% - - 49° 79.2° 66.9° - - -
6/26 6:10am 81 4 G 6 77° 38% - - 50° 78° 66.9° - - -
6/26 6:00am 73 5 G 6 77° 38% - - 49° 78° 66.9° - - -